Straseni, Moldova
Current Conditions -  °F | °C
As of 4:30 AM on Monday 22 Dec 2014 (Local Time) from LUKK Reporting Station
Clear Clear  
Wind Chill: 29°   Ceiling: Unl
Heat Index: 34°   Visibility: 6mi
Dew Point: 27°   Wind: 6mph
Humidity: 75%   Direction: 250°WSW
Pressure: 30.15"   Gusts: NA
Location:  47.15°N, 28.61°E
Report Text: LUKK 220130Z 25005KT CAVOK 01/M03 Q1021 R26/CLRD65NOSIG
Loading
Personal Weather Stations






























Interactive Weather Map New forecast layout! Learn more

10-Day Weather Forecast

Advertisements
Track Severe Weather on mobile